RPB7268 SKBO-SKRG
Flight info
| Callsign | RPB7268 |
|---|---|
| Flight time | 0h 25m |
| Altitude | 24000 |
| Route | TOBK4R VASIL W36 NIRSO NIRS3C |
| Aircraft | B738/M-SDE3FGHIRWY/S |
Departure
| Time | 2026-04-23 21:41 |
|---|---|
| Airport | El Dorado International Airport (SKBO) |
Arrival
| Time | 2026-04-23 22:06 |
|---|---|
| Airport | Jose Maria Córdova International Airport (SKRG) |
| Time | Latitude | Longitude | Altitude | Speed | Heading |
|---|---|---|---|---|---|
| 2026-04-23 21:04 | 4.69877 | -74.14629 | 8372 ft | 0 kts | 123° |
| 2026-04-23 21:29 | 4.69884 | -74.14640 | 8373 ft | 4 kts | 123° |
| 2026-04-23 21:30 | 4.69897 | -74.14661 | 8373 ft | 2 kts | 122° |
| 2026-04-23 21:30 | 4.69913 | -74.14680 | 8373 ft | 4 kts | 153° |
| 2026-04-23 21:30 | 4.69935 | -74.14682 | 8372 ft | 4 kts | 210° |
| 2026-04-23 21:30 | 4.69957 | -74.14666 | 8373 ft | 4 kts | 220° |
| 2026-04-23 21:31 | 4.69952 | -74.14669 | 8372 ft | 4 kts | 217° |
| 2026-04-23 21:31 | 4.69930 | -74.14686 | 8372 ft | 4 kts | 217° |
| 2026-04-23 21:31 | 4.69918 | -74.14695 | 8372 ft | 0 kts | 217° |
| 2026-04-23 21:36 | 4.69911 | -74.14700 | 8373 ft | 4 kts | 217° |
| 2026-04-23 21:36 | 4.69874 | -74.14728 | 8372 ft | 9 kts | 217° |
| 2026-04-23 21:36 | 4.69810 | -74.14776 | 8373 ft | 14 kts | 217° |
| 2026-04-23 21:37 | 4.69716 | -74.14788 | 8372 ft | 16 kts | 136° |
| 2026-04-23 21:37 | 4.69641 | -74.14690 | 8373 ft | 21 kts | 127° |
| 2026-04-23 21:37 | 4.69545 | -74.14563 | 8372 ft | 24 kts | 127° |
| 2026-04-23 21:37 | 4.69446 | -74.14433 | 8372 ft | 23 kts | 127° |
| 2026-04-23 21:38 | 4.69351 | -74.14308 | 8372 ft | 22 kts | 127° |
| 2026-04-23 21:38 | 4.69258 | -74.14187 | 8373 ft | 22 kts | 127° |
| 2026-04-23 21:38 | 4.69162 | -74.14087 | 8373 ft | 19 kts | 172° |
| 2026-04-23 21:38 | 4.69099 | -74.14119 | 8373 ft | 0 kts | 218° |
| 2026-04-23 21:39 | 4.69096 | -74.14122 | 8373 ft | 3 kts | 218° |
| 2026-04-23 21:39 | 4.69059 | -74.14151 | 8373 ft | 11 kts | 218° |
| 2026-04-23 21:39 | 4.69009 | -74.14200 | 8373 ft | 6 kts | 248° |
| 2026-04-23 21:40 | 4.69027 | -74.14236 | 8373 ft | 7 kts | 307° |
| 2026-04-23 21:40 | 4.69103 | -74.14336 | 8372 ft | 43 kts | 307° |
| 2026-04-23 21:40 | 4.69409 | -74.14742 | 8370 ft | 102 kts | 307° |
| 2026-04-23 21:40 | 4.69946 | -74.15453 | 8373 ft | 152 kts | 307° |
| 2026-04-23 21:41 | 4.70671 | -74.16415 | 8400 ft | 192 kts | 307° |
| 2026-04-23 21:41 | 4.71512 | -74.17502 | 8801 ft | 203 kts | 306° |
| 2026-04-23 21:41 | 4.72384 | -74.18632 | 9417 ft | 203 kts | 306° |
| 2026-04-23 21:41 | 4.73191 | -74.19817 | 9918 ft | 205 kts | 290° |
| 2026-04-23 21:42 | 4.73596 | -74.21199 | 10325 ft | 212 kts | 282° |
| 2026-04-23 21:42 | 4.73926 | -74.22618 | 10975 ft | 206 kts | 283° |
| 2026-04-23 21:42 | 4.74288 | -74.24019 | 11483 ft | 210 kts | 284° |
| 2026-04-23 21:42 | 4.74681 | -74.25476 | 11747 ft | 227 kts | 284° |
| 2026-04-23 21:43 | 4.74764 | -74.27102 | 11897 ft | 245 kts | 256° |
| 2026-04-23 21:43 | 4.74311 | -74.28823 | 11966 ft | 269 kts | 257° |
| 2026-04-23 21:43 | 4.73879 | -74.30748 | 11987 ft | 297 kts | 258° |
| 2026-04-23 21:43 | 4.73746 | -74.32849 | 12400 ft | 307 kts | 282° |
| 2026-04-23 21:44 | 4.74524 | -74.34833 | 13203 ft | 307 kts | 296° |
| 2026-04-23 21:44 | 4.75503 | -74.36750 | 13928 ft | 311 kts | 297° |
| 2026-04-23 21:44 | 4.76507 | -74.38686 | 14595 ft | 315 kts | 297° |
| 2026-04-23 21:44 | 4.77512 | -74.40650 | 15271 ft | 318 kts | 297° |
| 2026-04-23 21:45 | 4.78500 | -74.42652 | 15954 ft | 322 kts | 296° |
| 2026-04-23 21:45 | 4.79493 | -74.44671 | 16641 ft | 323 kts | 296° |
| 2026-04-23 21:45 | 4.80494 | -74.46696 | 17214 ft | 326 kts | 296° |
| 2026-04-23 21:45 | 4.81511 | -74.48755 | 17813 ft | 332 kts | 296° |
| 2026-04-23 21:46 | 4.82543 | -74.50852 | 18226 ft | 344 kts | 296° |
| 2026-04-23 21:46 | 4.83620 | -74.53070 | 18334 ft | 362 kts | 296° |
| 2026-04-23 21:46 | 4.84757 | -74.55397 | 18474 ft | 380 kts | 296° |
| 2026-04-23 21:46 | 4.85937 | -74.57817 | 18631 ft | 392 kts | 296° |
| 2026-04-23 21:47 | 4.87138 | -74.60295 | 19006 ft | 398 kts | 296° |
| 2026-04-23 21:47 | 4.88352 | -74.62801 | 19532 ft | 400 kts | 296° |
| 2026-04-23 21:47 | 4.89569 | -74.65309 | 20064 ft | 401 kts | 296° |
| 2026-04-23 21:47 | 4.90794 | -74.67834 | 20521 ft | 405 kts | 296° |
| 2026-04-23 21:48 | 4.92030 | -74.70385 | 20954 ft | 408 kts | 296° |
| 2026-04-23 21:48 | 4.93275 | -74.72945 | 21369 ft | 410 kts | 296° |
| 2026-04-23 21:48 | 4.94109 | -74.74659 | 21636 ft | 413 kts | 296° |
| 2026-04-23 21:48 | 4.95366 | -74.77251 | 22061 ft | 415 kts | 296° |
| 2026-04-23 21:49 | 4.96635 | -74.79856 | 22466 ft | 417 kts | 296° |
| 2026-04-23 21:49 | 4.97915 | -74.82481 | 22836 ft | 420 kts | 296° |
| 2026-04-23 21:49 | 4.99201 | -74.85119 | 23195 ft | 423 kts | 296° |
| 2026-04-23 21:49 | 5.00498 | -74.87778 | 23603 ft | 424 kts | 296° |
| 2026-04-23 21:50 | 5.01796 | -74.90440 | 23865 ft | 424 kts | 296° |
| 2026-04-23 21:50 | 5.03096 | -74.93108 | 23894 ft | 428 kts | 296° |
| 2026-04-23 21:50 | 5.04410 | -74.95804 | 23910 ft | 433 kts | 296° |
| 2026-04-23 21:50 | 5.05735 | -74.98524 | 23915 ft | 434 kts | 296° |
| 2026-04-23 21:51 | 5.07057 | -75.01241 | 23913 ft | 432 kts | 296° |
| 2026-04-23 21:51 | 5.08374 | -75.03947 | 23921 ft | 431 kts | 296° |
| 2026-04-23 21:51 | 5.09687 | -75.06647 | 23937 ft | 430 kts | 296° |
| 2026-04-23 21:51 | 5.11002 | -75.09349 | 23676 ft | 433 kts | 296° |
| 2026-04-23 21:52 | 5.12317 | -75.12051 | 23249 ft | 428 kts | 296° |
| 2026-04-23 21:52 | 5.13620 | -75.14728 | 22716 ft | 425 kts | 296° |
| 2026-04-23 21:52 | 5.14916 | -75.17371 | 22236 ft | 420 kts | 298° |
| 2026-04-23 21:52 | 5.16450 | -75.19839 | 21751 ft | 416 kts | 308° |
| 2026-04-23 21:53 | 5.18330 | -75.22025 | 21271 ft | 411 kts | 312° |
| 2026-04-23 21:53 | 5.20250 | -75.24139 | 20781 ft | 407 kts | 312° |
| 2026-04-23 21:53 | 5.22146 | -75.26230 | 20308 ft | 403 kts | 312° |
| 2026-04-23 21:53 | 5.24021 | -75.28315 | 19794 ft | 401 kts | 311° |
| 2026-04-23 21:54 | 5.25871 | -75.30390 | 19311 ft | 398 kts | 311° |
| 2026-04-23 21:54 | 5.27704 | -75.32458 | 18838 ft | 395 kts | 311° |
| 2026-04-23 21:54 | 5.29518 | -75.34508 | 18354 ft | 391 kts | 311° |
| 2026-04-23 21:54 | 5.31324 | -75.36548 | 17952 ft | 387 kts | 311° |
| 2026-04-23 21:55 | 5.33184 | -75.38456 | 17685 ft | 379 kts | 323° |
| 2026-04-23 21:55 | 5.35480 | -75.39656 | 17542 ft | 368 kts | 341° |
| 2026-04-23 21:55 | 5.37957 | -75.40118 | 17399 ft | 357 kts | 354° |
| 2026-04-23 21:55 | 5.40407 | -75.40283 | 17225 ft | 349 kts | 356° |
| 2026-04-23 21:56 | 5.42806 | -75.40384 | 17068 ft | 341 kts | 357° |
| 2026-04-23 21:56 | 5.45148 | -75.40476 | 16924 ft | 333 kts | 357° |
| 2026-04-23 21:56 | 5.47452 | -75.40575 | 16602 ft | 331 kts | 356° |
| 2026-04-23 21:56 | 5.49744 | -75.40686 | 16291 ft | 329 kts | 356° |
| 2026-04-23 21:57 | 5.52025 | -75.40803 | 15955 ft | 327 kts | 356° |
| 2026-04-23 21:57 | 5.54293 | -75.40923 | 15635 ft | 325 kts | 356° |
| 2026-04-23 21:57 | 5.56549 | -75.41045 | 15319 ft | 324 kts | 356° |
| 2026-04-23 21:57 | 5.58794 | -75.41169 | 14990 ft | 322 kts | 356° |
| 2026-04-23 21:58 | 5.61027 | -75.41292 | 14671 ft | 321 kts | 356° |
| 2026-04-23 21:58 | 5.63257 | -75.41417 | 14349 ft | 320 kts | 356° |
| 2026-04-23 21:58 | 5.65468 | -75.41540 | 14110 ft | 316 kts | 355° |
| 2026-04-23 21:58 | 5.67636 | -75.41661 | 13963 ft | 308 kts | 355° |
| 2026-04-23 21:59 | 5.69750 | -75.41779 | 13805 ft | 301 kts | 355° |
| 2026-04-23 21:59 | 5.71814 | -75.41894 | 13699 ft | 294 kts | 355° |
| 2026-04-23 21:59 | 5.73830 | -75.42006 | 13582 ft | 286 kts | 355° |
| 2026-04-23 22:00 | 5.77697 | -75.42219 | 13285 ft | 273 kts | 356° |
| 2026-04-23 22:00 | 5.79593 | -75.42244 | 13019 ft | 272 kts | 359° |
| 2026-04-23 22:00 | 5.81480 | -75.42194 | 12763 ft | 270 kts | 1° |
| 2026-04-23 22:00 | 5.83355 | -75.42110 | 12511 ft | 269 kts | 0° |
| 2026-04-23 22:01 | 5.85227 | -75.42079 | 12234 ft | 268 kts | 358° |
| 2026-04-23 22:01 | 5.87066 | -75.42082 | 12000 ft | 266 kts | 358° |
| 2026-04-23 22:01 | 5.88894 | -75.42094 | 11939 ft | 260 kts | 358° |
| 2026-04-23 22:01 | 5.90721 | -75.42108 | 11641 ft | 264 kts | 358° |
| 2026-04-23 22:02 | 5.92545 | -75.42120 | 11305 ft | 262 kts | 358° |
| 2026-04-23 22:02 | 5.94356 | -75.42131 | 10962 ft | 259 kts | 358° |
| 2026-04-23 22:02 | 5.96145 | -75.42142 | 10634 ft | 255 kts | 359° |
| 2026-04-23 22:02 | 5.97928 | -75.42155 | 10278 ft | 251 kts | 360° |
| 2026-04-23 22:03 | 5.99632 | -75.42169 | 9950 ft | 246 kts | 359° |
| 2026-04-23 22:03 | 6.01311 | -75.42179 | 9609 ft | 236 kts | 359° |
| 2026-04-23 22:03 | 6.02911 | -75.42192 | 9313 ft | 224 kts | 359° |
| 2026-04-23 22:03 | 6.04435 | -75.42204 | 9027 ft | 213 kts | 359° |
| 2026-04-23 22:04 | 6.05868 | -75.42215 | 8794 ft | 198 kts | 360° |
| 2026-04-23 22:04 | 6.07195 | -75.42218 | 8502 ft | 183 kts | 1° |
| 2026-04-23 22:04 | 6.08443 | -75.42220 | 8270 ft | 179 kts | 1° |
| 2026-04-23 22:04 | 6.09682 | -75.42232 | 8032 ft | 178 kts | 0° |
| 2026-04-23 22:05 | 6.10910 | -75.42248 | 7812 ft | 175 kts | 0° |
| 2026-04-23 22:05 | 6.12128 | -75.42272 | 7580 ft | 173 kts | 359° |
| 2026-04-23 22:05 | 6.13330 | -75.42295 | 7324 ft | 173 kts | 1° |
| 2026-04-23 22:05 | 6.14526 | -75.42302 | 7106 ft | 171 kts | 359° |
| 2026-04-23 22:06 | 6.15701 | -75.42307 | 6978 ft | 159 kts | 359° |
| 2026-04-23 22:06 | 6.16588 | -75.42314 | 6997 ft | 96 kts | 360° |
| 2026-04-23 22:06 | 6.17036 | -75.42317 | 7018 ft | 47 kts | 359° |
| 2026-04-23 22:06 | 6.17348 | -75.42318 | 7022 ft | 42 kts | 360° |
| 2026-04-23 22:07 | 6.17537 | -75.42323 | 7024 ft | 19 kts | 348° |
| 2026-04-23 22:07 | 6.17575 | -75.42418 | 7021 ft | 4 kts | 274° |
| 2026-04-23 22:07 | 6.17576 | -75.42445 | 7021 ft | 4 kts | 271° |
| 2026-04-23 22:07 | 6.17573 | -75.42472 | 7018 ft | 4 kts | 262° |
| 2026-04-23 22:08 | 6.17561 | -75.42496 | 7018 ft | 4 kts | 227° |
| 2026-04-23 22:08 | 6.17530 | -75.42519 | 7018 ft | 6 kts | 214° |
| 2026-04-23 22:08 | 6.17482 | -75.42551 | 7017 ft | 10 kts | 213° |
| 2026-04-23 22:08 | 6.17414 | -75.42597 | 7016 ft | 13 kts | 214° |
| 2026-04-23 22:09 | 6.17317 | -75.42621 | 7015 ft | 16 kts | 180° |
| 2026-04-23 22:09 | 6.17203 | -75.42618 | 7016 ft | 17 kts | 179° |
| 2026-04-23 22:09 | 6.17084 | -75.42617 | 7015 ft | 13 kts | 200° |
| 2026-04-23 22:09 | 6.17005 | -75.42676 | 7015 ft | 14 kts | 219° |
| 2026-04-23 22:10 | 6.16982 | -75.42699 | 7017 ft | 2 kts | 282° |
| 2026-04-23 22:10 | 6.16990 | -75.42715 | 7016 ft | 4 kts | 300° |
| 2026-04-23 22:10 | 6.17002 | -75.42729 | 7015 ft | 1 kts | 314° |
| 2026-04-23 22:10 | 6.17008 | -75.42736 | 7015 ft | 0 kts | 316° |